sensor_id;sensor_type;location;lat;lon;timestamp;P1;durP1;ratioP1;P2;durP2;ratioP2
9256;SDS011;4665;51.368;6.782;2023-08-06T00:01:51;3.50;;;3.30;;
9256;SDS011;4665;51.368;6.782;2023-08-06T00:04:16;3.30;;;3.10;;
9256;SDS011;4665;51.368;6.782;2023-08-06T00:06:42;3.30;;;2.93;;
9256;SDS011;4665;51.368;6.782;2023-08-06T00:09:07;3.10;;;2.90;;
9256;SDS011;4665;51.368;6.782;2023-08-06T00:11:33;4.37;;;3.40;;
9256;SDS011;4665;51.368;6.782;2023-08-06T00:13:59;3.20;;;2.90;;
9256;SDS011;4665;51.368;6.782;2023-08-06T00:16:24;3.20;;;2.97;;
9256;SDS011;4665;51.368;6.782;2023-08-06T00:18:49;4.40;;;3.43;;
9256;SDS011;4665;51.368;6.782;2023-08-06T00:21:15;3.30;;;3.10;;
9256;SDS011;4665;51.368;6.782;2023-08-06T00:23:41;3.97;;;3.10;;
9256;SDS011;4665;51.368;6.782;2023-08-06T00:26:06;4.53;;;3.10;;
9256;SDS011;4665;51.368;6.782;2023-08-06T00:28:32;3.53;;;2.70;;
9256;SDS011;4665;51.368;6.782;2023-08-06T00:30:57;3.23;;;3.00;;
9256;SDS011;4665;51.368;6.782;2023-08-06T00:33:23;3.20;;;3.00;;
9256;SDS011;4665;51.368;6.782;2023-08-06T00:35:49;7.50;;;3.50;;
9256;SDS011;4665;51.368;6.782;2023-08-06T00:38:14;3.93;;;3.10;;
9256;SDS011;4665;51.368;6.782;2023-08-06T00:40:40;5.67;;;2.97;;
9256;SDS011;4665;51.368;6.782;2023-08-06T00:43:06;3.07;;;2.87;;
9256;SDS011;4665;51.368;6.782;2023-08-06T00:45:33;3.37;;;3.03;;
9256;SDS011;4665;51.368;6.782;2023-08-06T00:48:01;2.97;;;2.77;;
9256;SDS011;4665;51.368;6.782;2023-08-06T00:50:27;2.90;;;2.77;;
9256;SDS011;4665;51.368;6.782;2023-08-06T00:52:53;3.23;;;3.00;;
9256;SDS011;4665;51.368;6.782;2023-08-06T00:55:19;3.80;;;2.80;;
9256;SDS011;4665;51.368;6.782;2023-08-06T00:57:44;3.17;;;2.97;;
9256;SDS011;4665;51.368;6.782;2023-08-06T01:00:10;3.20;;;2.97;;
9256;SDS011;4665;51.368;6.782;2023-08-06T01:02:36;3.43;;;3.20;;
9256;SDS011;4665;51.368;6.782;2023-08-06T01:05:03;3.30;;;3.10;;
9256;SDS011;4665;51.368;6.782;2023-08-06T01:10:23;3.83;;;3.30;;
9256;SDS011;4665;51.368;6.782;2023-08-06T01:13:00;3.50;;;3.30;;
9256;SDS011;4665;51.368;6.782;2023-08-06T01:15:32;3.43;;;2.80;;
9256;SDS011;4665;51.368;6.782;2023-08-06T01:18:03;3.87;;;3.00;;
9256;SDS011;4665;51.368;6.782;2023-08-06T01:20:29;3.07;;;2.87;;
9256;SDS011;4665;51.368;6.782;2023-08-06T01:22:55;4.40;;;2.80;;
9256;SDS011;4665;51.368;6.782;2023-08-06T01:25:20;3.10;;;2.90;;
9256;SDS011;4665;51.368;6.782;2023-08-06T01:27:54;3.13;;;2.70;;
9256;SDS011;4665;51.368;6.782;2023-08-06T01:30:25;3.37;;;3.07;;
9256;SDS011;4665;51.368;6.782;2023-08-06T01:32:58;3.00;;;2.80;;
9256;SDS011;4665;51.368;6.782;2023-08-06T01:35:28;4.03;;;3.17;;
9256;SDS011;4665;51.368;6.782;2023-08-06T01:37:55;2.80;;;2.60;;
9256;SDS011;4665;51.368;6.782;2023-08-06T01:40:21;4.20;;;3.00;;
9256;SDS011;4665;51.368;6.782;2023-08-06T01:42:47;3.33;;;3.00;;
9256;SDS011;4665;51.368;6.782;2023-08-06T01:45:12;2.50;;;2.40;;
9256;SDS011;4665;51.368;6.782;2023-08-06T01:47:38;2.77;;;2.67;;
9256;SDS011;4665;51.368;6.782;2023-08-06T01:50:03;2.90;;;2.70;;
9256;SDS011;4665;51.368;6.782;2023-08-06T01:52:29;3.50;;;2.50;;
9256;SDS011;4665;51.368;6.782;2023-08-06T01:54:55;3.07;;;2.87;;
9256;SDS011;4665;51.368;6.782;2023-08-06T01:57:20;3.70;;;2.70;;
9256;SDS011;4665;51.368;6.782;2023-08-06T01:59:46;2.93;;;2.73;;
9256;SDS011;4665;51.368;6.782;2023-08-06T02:02:12;3.00;;;2.80;;
9256;SDS011;4665;51.368;6.782;2023-08-06T02:04:37;4.43;;;2.93;;
9256;SDS011;4665;51.368;6.782;2023-08-06T02:07:03;2.50;;;2.40;;
9256;SDS011;4665;51.368;6.782;2023-08-06T02:09:29;4.37;;;3.20;;
9256;SDS011;4665;51.368;6.782;2023-08-06T02:11:54;2.77;;;2.57;;
9256;SDS011;4665;51.368;6.782;2023-08-06T02:14:19;2.87;;;2.70;;
9256;SDS011;4665;51.368;6.782;2023-08-06T02:16:45;2.83;;;2.73;;
9256;SDS011;4665;51.368;6.782;2023-08-06T02:19:10;4.37;;;2.93;;
9256;SDS011;4665;51.368;6.782;2023-08-06T02:21:36;2.93;;;2.60;;
9256;SDS011;4665;51.368;6.782;2023-08-06T02:24:01;3.30;;;3.00;;
9256;SDS011;4665;51.368;6.782;2023-08-06T02:26:27;2.80;;;2.60;;
9256;SDS011;4665;51.368;6.782;2023-08-06T02:28:52;2.67;;;2.57;;
9256;SDS011;4665;51.368;6.782;2023-08-06T02:31:18;2.80;;;2.60;;
9256;SDS011;4665;51.368;6.782;2023-08-06T02:33:43;3.00;;;2.80;;
9256;SDS011;4665;51.368;6.782;2023-08-06T02:36:09;2.90;;;2.70;;
9256;SDS011;4665;51.368;6.782;2023-08-06T02:38:34;3.20;;;2.80;;
9256;SDS011;4665;51.368;6.782;2023-08-06T02:41:03;2.50;;;2.30;;
9256;SDS011;4665;51.368;6.782;2023-08-06T02:43:29;3.03;;;2.83;;
9256;SDS011;4665;51.368;6.782;2023-08-06T02:45:58;2.70;;;2.50;;
9256;SDS011;4665;51.368;6.782;2023-08-06T02:48:24;2.90;;;2.70;;
9256;SDS011;4665;51.368;6.782;2023-08-06T02:50:50;3.00;;;2.40;;
9256;SDS011;4665;51.368;6.782;2023-08-06T02:53:15;3.33;;;3.10;;
9256;SDS011;4665;51.368;6.782;2023-08-06T02:55:50;3.40;;;2.70;;
9256;SDS011;4665;51.368;6.782;2023-08-06T02:58:16;2.80;;;2.60;;
9256;SDS011;4665;51.368;6.782;2023-08-06T03:00:42;2.80;;;2.60;;
9256;SDS011;4665;51.368;6.782;2023-08-06T03:03:08;2.90;;;2.70;;
9256;SDS011;4665;51.368;6.782;2023-08-06T03:05:34;3.57;;;2.80;;
9256;SDS011;4665;51.368;6.782;2023-08-06T03:08:00;3.00;;;2.80;;
9256;SDS011;4665;51.368;6.782;2023-08-06T03:10:25;3.83;;;2.80;;
9256;SDS011;4665;51.368;6.782;2023-08-06T03:12:51;4.93;;;2.43;;
9256;SDS011;4665;51.368;6.782;2023-08-06T03:17:47;2.90;;;2.70;;
9256;SDS011;4665;51.368;6.782;2023-08-06T03:20:13;2.83;;;2.63;;
9256;SDS011;4665;51.368;6.782;2023-08-06T03:22:38;3.13;;;2.90;;
9256;SDS011;4665;51.368;6.782;2023-08-06T03:25:03;3.10;;;2.90;;
9256;SDS011;4665;51.368;6.782;2023-08-06T03:27:29;3.57;;;2.70;;
9256;SDS011;4665;51.368;6.782;2023-08-06T03:29:55;3.43;;;2.63;;
9256;SDS011;4665;51.368;6.782;2023-08-06T03:32:20;3.40;;;3.10;;
9256;SDS011;4665;51.368;6.782;2023-08-06T03:34:46;2.50;;;2.40;;
9256;SDS011;4665;51.368;6.782;2023-08-06T03:37:11;3.37;;;3.07;;
9256;SDS011;4665;51.368;6.782;2023-08-06T03:39:36;2.63;;;2.53;;
9256;SDS011;4665;51.368;6.782;2023-08-06T03:42:02;2.73;;;2.50;;
9256;SDS011;4665;51.368;6.782;2023-08-06T03:44:28;4.07;;;3.10;;
9256;SDS011;4665;51.368;6.782;2023-08-06T03:46:53;6.77;;;3.00;;
9256;SDS011;4665;51.368;6.782;2023-08-06T03:49:19;2.80;;;2.63;;
9256;SDS011;4665;51.368;6.782;2023-08-06T03:51:44;3.00;;;2.70;;
9256;SDS011;4665;51.368;6.782;2023-08-06T03:54:09;2.50;;;2.40;;
9256;SDS011;4665;51.368;6.782;2023-08-06T03:56:35;2.80;;;2.60;;
9256;SDS011;4665;51.368;6.782;2023-08-06T03:59:00;2.70;;;2.47;;
9256;SDS011;4665;51.368;6.782;2023-08-06T04:01:26;3.33;;;2.87;;
9256;SDS011;4665;51.368;6.782;2023-08-06T04:03:51;2.90;;;2.70;;
9256;SDS011;4665;51.368;6.782;2023-08-06T04:06:17;3.23;;;3.00;;
9256;SDS011;4665;51.368;6.782;2023-08-06T04:08:42;3.07;;;2.87;;
9256;SDS011;4665;51.368;6.782;2023-08-06T04:11:08;2.70;;;2.50;;
9256;SDS011;4665;51.368;6.782;2023-08-06T04:13:33;2.30;;;2.20;;
9256;SDS011;4665;51.368;6.782;2023-08-06T04:16:02;2.80;;;2.60;;
9256;SDS011;4665;51.368;6.782;2023-08-06T04:18:28;2.40;;;2.30;;
9256;SDS011;4665;51.368;6.782;2023-08-06T04:20:53;2.50;;;2.23;;
9256;SDS011;4665;51.368;6.782;2023-08-06T04:23:20;2.70;;;2.50;;
9256;SDS011;4665;51.368;6.782;2023-08-06T04:25:45;2.80;;;2.60;;
9256;SDS011;4665;51.368;6.782;2023-08-06T04:28:11;2.70;;;2.50;;
9256;SDS011;4665;51.368;6.782;2023-08-06T04:30:37;2.63;;;2.50;;
9256;SDS011;4665;51.368;6.782;2023-08-06T04:33:03;2.83;;;2.63;;
9256;SDS011;4665;51.368;6.782;2023-08-06T04:35:28;3.03;;;2.70;;
9256;SDS011;4665;51.368;6.782;2023-08-06T04:37:54;2.43;;;2.33;;
9256;SDS011;4665;51.368;6.782;2023-08-06T04:40:19;3.30;;;3.00;;
9256;SDS011;4665;51.368;6.782;2023-08-06T04:42:44;3.07;;;2.87;;
9256;SDS011;4665;51.368;6.782;2023-08-06T04:45:11;3.17;;;2.83;;
9256;SDS011;4665;51.368;6.782;2023-08-06T04:47:36;2.97;;;2.67;;
9256;SDS011;4665;51.368;6.782;2023-08-06T04:50:02;4.00;;;3.10;;
9256;SDS011;4665;51.368;6.782;2023-08-06T04:52:27;2.80;;;2.60;;
9256;SDS011;4665;51.368;6.782;2023-08-06T04:54:54;6.00;;;3.00;;
9256;SDS011;4665;51.368;6.782;2023-08-06T04:57:20;3.13;;;2.93;;
9256;SDS011;4665;51.368;6.782;2023-08-06T04:59:46;2.90;;;2.70;;
9256;SDS011;4665;51.368;6.782;2023-08-06T05:02:11;3.30;;;3.03;;
9256;SDS011;4665;51.368;6.782;2023-08-06T05:04:37;3.47;;;3.20;;
9256;SDS011;4665;51.368;6.782;2023-08-06T05:07:02;3.20;;;2.90;;
9256;SDS011;4665;51.368;6.782;2023-08-06T05:09:28;3.40;;;2.80;;
9256;SDS011;4665;51.368;6.782;2023-08-06T05:11:54;3.87;;;3.00;;
9256;SDS011;4665;51.368;6.782;2023-08-06T05:14:19;3.07;;;2.83;;
9256;SDS011;4665;51.368;6.782;2023-08-06T05:16:45;2.93;;;2.77;;
9256;SDS011;4665;51.368;6.782;2023-08-06T05:19:10;2.97;;;2.77;;
9256;SDS011;4665;51.368;6.782;2023-08-06T05:21:36;2.97;;;2.77;;
9256;SDS011;4665;51.368;6.782;2023-08-06T05:24:01;3.07;;;2.87;;
9256;SDS011;4665;51.368;6.782;2023-08-06T05:26:26;2.90;;;2.70;;
9256;SDS011;4665;51.368;6.782;2023-08-06T05:28:52;2.93;;;2.73;;
9256;SDS011;4665;51.368;6.782;2023-08-06T05:31:17;2.97;;;2.67;;
9256;SDS011;4665;51.368;6.782;2023-08-06T05:33:43;2.90;;;2.70;;
9256;SDS011;4665;51.368;6.782;2023-08-06T05:36:08;2.87;;;2.50;;
9256;SDS011;4665;51.368;6.782;2023-08-06T05:38:34;3.90;;;2.80;;
9256;SDS011;4665;51.368;6.782;2023-08-06T05:40:59;3.23;;;2.97;;
9256;SDS011;4665;51.368;6.782;2023-08-06T05:43:24;2.97;;;2.63;;
9256;SDS011;4665;51.368;6.782;2023-08-06T05:45:50;2.90;;;2.70;;
9256;SDS011;4665;51.368;6.782;2023-08-06T05:48:16;2.97;;;2.70;;
9256;SDS011;4665;51.368;6.782;2023-08-06T05:50:41;2.83;;;2.50;;
9256;SDS011;4665;51.368;6.782;2023-08-06T05:53:07;2.63;;;2.43;;
9256;SDS011;4665;51.368;6.782;2023-08-06T05:55:33;3.03;;;2.83;;
9256;SDS011;4665;51.368;6.782;2023-08-06T05:57:59;2.87;;;2.60;;
9256;SDS011;4665;51.368;6.782;2023-08-06T06:00:24;2.73;;;2.50;;
9256;SDS011;4665;51.368;6.782;2023-08-06T06:02:50;3.00;;;2.63;;
9256;SDS011;4665;51.368;6.782;2023-08-06T06:05:15;2.90;;;2.70;;
9256;SDS011;4665;51.368;6.782;2023-08-06T06:07:41;3.33;;;3.13;;
9256;SDS011;4665;51.368;6.782;2023-08-06T06:10:06;2.63;;;2.50;;
9256;SDS011;4665;51.368;6.782;2023-08-06T06:12:32;3.00;;;2.80;;
9256;SDS011;4665;51.368;6.782;2023-08-06T06:14:59;2.90;;;2.70;;
9256;SDS011;4665;51.368;6.782;2023-08-06T06:17:26;2.90;;;2.67;;
9256;SDS011;4665;51.368;6.782;2023-08-06T06:19:51;3.07;;;2.87;;
9256;SDS011;4665;51.368;6.782;2023-08-06T06:22:17;2.77;;;2.50;;
9256;SDS011;4665;51.368;6.782;2023-08-06T06:24:42;3.17;;;2.83;;
9256;SDS011;4665;51.368;6.782;2023-08-06T06:27:08;4.33;;;2.80;;
9256;SDS011;4665;51.368;6.782;2023-08-06T06:29:33;3.50;;;2.90;;
9256;SDS011;4665;51.368;6.782;2023-08-06T06:31:59;2.70;;;2.50;;
9256;SDS011;4665;51.368;6.782;2023-08-06T06:34:24;5.43;;;3.10;;
9256;SDS011;4665;51.368;6.782;2023-08-06T06:36:50;4.03;;;2.90;;
9256;SDS011;4665;51.368;6.782;2023-08-06T06:39:15;3.13;;;2.30;;
9256;SDS011;4665;51.368;6.782;2023-08-06T06:41:41;2.93;;;2.63;;
9256;SDS011;4665;51.368;6.782;2023-08-06T06:44:06;3.57;;;2.63;;
9256;SDS011;4665;51.368;6.782;2023-08-06T06:46:32;3.43;;;2.50;;
9256;SDS011;4665;51.368;6.782;2023-08-06T06:48:57;2.57;;;2.37;;
9256;SDS011;4665;51.368;6.782;2023-08-06T06:51:23;2.23;;;2.13;;
9256;SDS011;4665;51.368;6.782;2023-08-06T06:53:48;2.93;;;2.60;;
9256;SDS011;4665;51.368;6.782;2023-08-06T06:56:14;4.00;;;2.90;;
9256;SDS011;4665;51.368;6.782;2023-08-06T06:58:39;2.30;;;2.20;;
9256;SDS011;4665;51.368;6.782;2023-08-06T07:01:06;3.60;;;2.47;;
9256;SDS011;4665;51.368;6.782;2023-08-06T07:03:32;2.83;;;2.20;;
9256;SDS011;4665;51.368;6.782;2023-08-06T07:05:58;2.40;;;2.30;;
9256;SDS011;4665;51.368;6.782;2023-08-06T07:08:24;3.07;;;2.87;;
9256;SDS011;4665;51.368;6.782;2023-08-06T07:10:50;3.30;;;3.00;;
9256;SDS011;4665;51.368;6.782;2023-08-06T07:13:15;3.13;;;2.90;;
9256;SDS011;4665;51.368;6.782;2023-08-06T07:15:41;3.47;;;3.13;;
9256;SDS011;4665;51.368;6.782;2023-08-06T07:18:07;3.77;;;3.00;;
9256;SDS011;4665;51.368;6.782;2023-08-06T07:20:33;3.30;;;3.00;;
9256;SDS011;4665;51.368;6.782;2023-08-06T07:22:59;2.93;;;2.33;;
9256;SDS011;4665;51.368;6.782;2023-08-06T07:25:25;3.80;;;3.10;;
9256;SDS011;4665;51.368;6.782;2023-08-06T07:27:51;3.50;;;3.23;;
9256;SDS011;4665;51.368;6.782;2023-08-06T07:30:16;3.50;;;3.20;;
9256;SDS011;4665;51.368;6.782;2023-08-06T07:32:42;8.97;;;3.30;;
9256;SDS011;4665;51.368;6.782;2023-08-06T07:35:07;3.37;;;3.13;;
9256;SDS011;4665;51.368;6.782;2023-08-06T07:37:37;3.50;;;3.20;;
9256;SDS011;4665;51.368;6.782;2023-08-06T07:42:55;4.07;;;2.80;;
9256;SDS011;4665;51.368;6.782;2023-08-06T07:45:20;2.50;;;2.40;;
9256;SDS011;4665;51.368;6.782;2023-08-06T07:47:46;2.90;;;2.50;;
9256;SDS011;4665;51.368;6.782;2023-08-06T07:50:26;2.50;;;2.40;;
9256;SDS011;4665;51.368;6.782;2023-08-06T07:52:51;2.80;;;2.60;;
9256;SDS011;4665;51.368;6.782;2023-08-06T07:55:17;2.83;;;2.60;;
9256;SDS011;4665;51.368;6.782;2023-08-06T07:57:42;2.23;;;2.13;;
9256;SDS011;4665;51.368;6.782;2023-08-06T08:00:08;2.63;;;2.43;;
9256;SDS011;4665;51.368;6.782;2023-08-06T08:02:34;3.23;;;3.00;;
9256;SDS011;4665;51.368;6.782;2023-08-06T08:05:00;4.73;;;3.10;;
9256;SDS011;4665;51.368;6.782;2023-08-06T08:07:25;3.50;;;3.20;;
9256;SDS011;4665;51.368;6.782;2023-08-06T08:09:53;4.00;;;3.60;;
9256;SDS011;4665;51.368;6.782;2023-08-06T08:12:19;3.30;;;2.97;;
9256;SDS011;4665;51.368;6.782;2023-08-06T08:14:50;3.17;;;2.97;;
9256;SDS011;4665;51.368;6.782;2023-08-06T08:20:03;3.33;;;3.03;;
9256;SDS011;4665;51.368;6.782;2023-08-06T08:22:30;3.83;;;3.43;;
9256;SDS011;4665;51.368;6.782;2023-08-06T08:25:04;4.40;;;3.73;;
9256;SDS011;4665;51.368;6.782;2023-08-06T08:27:30;3.37;;;3.07;;
9256;SDS011;4665;51.368;6.782;2023-08-06T08:29:55;3.50;;;3.20;;
9256;SDS011;4665;51.368;6.782;2023-08-06T08:32:21;4.13;;;3.33;;
9256;SDS011;4665;51.368;6.782;2023-08-06T08:34:54;3.10;;;2.90;;
9256;SDS011;4665;51.368;6.782;2023-08-06T08:37:20;5.00;;;3.30;;
9256;SDS011;4665;51.368;6.782;2023-08-06T08:39:45;6.07;;;3.70;;
9256;SDS011;4665;51.368;6.782;2023-08-06T08:42:11;3.90;;;3.60;;
9256;SDS011;4665;51.368;6.782;2023-08-06T08:44:42;4.10;;;3.70;;
9256;SDS011;4665;51.368;6.782;2023-08-06T08:47:08;3.93;;;3.53;;
9256;SDS011;4665;51.368;6.782;2023-08-06T08:49:37;4.03;;;3.63;;
9256;SDS011;4665;51.368;6.782;2023-08-06T08:52:04;3.57;;;3.37;;
9256;SDS011;4665;51.368;6.782;2023-08-06T08:54:35;3.43;;;3.10;;
9256;SDS011;4665;51.368;6.782;2023-08-06T08:57:03;3.67;;;3.40;;
9256;SDS011;4665;51.368;6.782;2023-08-06T08:59:29;4.10;;;3.73;;
9256;SDS011;4665;51.368;6.782;2023-08-06T09:01:54;3.77;;;3.40;;
9256;SDS011;4665;51.368;6.782;2023-08-06T09:04:23;3.30;;;3.10;;
9256;SDS011;4665;51.368;6.782;2023-08-06T09:06:52;3.50;;;3.20;;
9256;SDS011;4665;51.368;6.782;2023-08-06T09:09:31;5.13;;;3.13;;
9256;SDS011;4665;51.368;6.782;2023-08-06T09:12:03;3.30;;;3.10;;
9256;SDS011;4665;51.368;6.782;2023-08-06T09:14:36;3.10;;;2.90;;
9256;SDS011;4665;51.368;6.782;2023-08-06T09:17:01;3.17;;;2.97;;
9256;SDS011;4665;51.368;6.782;2023-08-06T09:19:27;3.60;;;3.30;;
9256;SDS011;4665;51.368;6.782;2023-08-06T09:21:53;3.80;;;3.07;;
9256;SDS011;4665;51.368;6.782;2023-08-06T09:24:20;4.60;;;3.00;;
9256;SDS011;4665;51.368;6.782;2023-08-06T09:26:47;4.83;;;2.97;;
9256;SDS011;4665;51.368;6.782;2023-08-06T09:29:12;2.63;;;2.43;;
9256;SDS011;4665;51.368;6.782;2023-08-06T09:31:42;4.17;;;2.47;;
9256;SDS011;4665;51.368;6.782;2023-08-06T09:34:12;2.83;;;2.47;;
9256;SDS011;4665;51.368;6.782;2023-08-06T09:36:42;4.67;;;2.57;;
9256;SDS011;4665;51.368;6.782;2023-08-06T09:39:14;3.00;;;2.70;;
9256;SDS011;4665;51.368;6.782;2023-08-06T09:41:41;5.47;;;2.70;;
9256;SDS011;4665;51.368;6.782;2023-08-06T09:44:17;2.70;;;2.33;;
9256;SDS011;4665;51.368;6.782;2023-08-06T09:46:48;3.13;;;2.60;;
9256;SDS011;4665;51.368;6.782;2023-08-06T09:49:14;2.90;;;2.70;;
9256;SDS011;4665;51.368;6.782;2023-08-06T09:51:39;3.73;;;2.87;;
9256;SDS011;4665;51.368;6.782;2023-08-06T09:54:06;3.17;;;2.80;;
9256;SDS011;4665;51.368;6.782;2023-08-06T09:56:36;5.30;;;2.83;;
9256;SDS011;4665;51.368;6.782;2023-08-06T09:59:04;3.57;;;2.63;;
9256;SDS011;4665;51.368;6.782;2023-08-06T10:01:32;3.80;;;2.97;;
9256;SDS011;4665;51.368;6.782;2023-08-06T10:03:59;3.97;;;2.63;;
9256;SDS011;4665;51.368;6.782;2023-08-06T10:06:25;6.20;;;2.77;;
9256;SDS011;4665;51.368;6.782;2023-08-06T10:08:51;4.43;;;2.63;;
9256;SDS011;4665;51.368;6.782;2023-08-06T10:11:17;3.17;;;2.97;;
9256;SDS011;4665;51.368;6.782;2023-08-06T10:13:42;4.33;;;2.87;;
9256;SDS011;4665;51.368;6.782;2023-08-06T10:16:08;3.33;;;3.00;;
9256;SDS011;4665;51.368;6.782;2023-08-06T10:18:35;3.20;;;3.00;;
9256;SDS011;4665;51.368;6.782;2023-08-06T10:21:04;2.90;;;2.70;;
9256;SDS011;4665;51.368;6.782;2023-08-06T10:23:34;3.93;;;3.63;;
9256;SDS011;4665;51.368;6.782;2023-08-06T10:26:02;8.20;;;3.70;;
9256;SDS011;4665;51.368;6.782;2023-08-06T10:31:58;4.90;;;4.43;;
9256;SDS011;4665;51.368;6.782;2023-08-06T10:34:25;4.33;;;3.90;;
9256;SDS011;4665;51.368;6.782;2023-08-06T10:36:53;4.07;;;3.77;;
9256;SDS011;4665;51.368;6.782;2023-08-06T10:39:20;4.27;;;3.90;;
9256;SDS011;4665;51.368;6.782;2023-08-06T10:41:45;5.30;;;3.93;;
9256;SDS011;4665;51.368;6.782;2023-08-06T10:44:11;5.17;;;4.57;;
9256;SDS011;4665;51.368;6.782;2023-08-06T10:46:37;4.10;;;3.80;;
9256;SDS011;4665;51.368;6.782;2023-08-06T10:49:03;3.47;;;3.27;;
9256;SDS011;4665;51.368;6.782;2023-08-06T10:51:29;2.80;;;2.60;;
9256;SDS011;4665;51.368;6.782;2023-08-06T10:53:55;2.90;;;1.70;;
9256;SDS011;4665;51.368;6.782;2023-08-06T10:56:23;1.47;;;1.37;;
9256;SDS011;4665;51.368;6.782;2023-08-06T10:58:51;1.47;;;1.37;;
9256;SDS011;4665;51.368;6.782;2023-08-06T11:01:18;1.83;;;1.60;;
9256;SDS011;4665;51.368;6.782;2023-08-06T11:03:45;1.77;;;1.40;;
9256;SDS011;4665;51.368;6.782;2023-08-06T11:06:16;2.33;;;1.30;;
9256;SDS011;4665;51.368;6.782;2023-08-06T11:08:52;2.30;;;1.57;;
9256;SDS011;4665;51.368;6.782;2023-08-06T11:11:20;2.23;;;1.90;;
9256;SDS011;4665;51.368;6.782;2023-08-06T11:13:48;1.97;;;1.50;;
9256;SDS011;4665;51.368;6.782;2023-08-06T11:16:23;1.70;;;1.60;;
9256;SDS011;4665;51.368;6.782;2023-08-06T11:18:49;2.20;;;2.00;;
9256;SDS011;4665;51.368;6.782;2023-08-06T11:21:19;2.20;;;2.00;;
9256;SDS011;4665;51.368;6.782;2023-08-06T11:23:45;2.00;;;1.90;;
9256;SDS011;4665;51.368;6.782;2023-08-06T11:26:12;2.23;;;2.03;;
9256;SDS011;4665;51.368;6.782;2023-08-06T11:28:37;1.90;;;1.80;;
9256;SDS011;4665;51.368;6.782;2023-08-06T11:31:02;2.00;;;1.90;;
9256;SDS011;4665;51.368;6.782;2023-08-06T11:33:29;2.60;;;2.40;;
9256;SDS011;4665;51.368;6.782;2023-08-06T11:35:55;2.57;;;2.47;;
9256;SDS011;4665;51.368;6.782;2023-08-06T11:38:29;5.47;;;2.50;;
9256;SDS011;4665;51.368;6.782;2023-08-06T11:40:55;2.50;;;2.30;;
9256;SDS011;4665;51.368;6.782;2023-08-06T11:43:21;2.00;;;1.77;;
9256;SDS011;4665;51.368;6.782;2023-08-06T11:45:48;2.17;;;2.07;;
9256;SDS011;4665;51.368;6.782;2023-08-06T11:48:14;2.40;;;2.20;;
9256;SDS011;4665;51.368;6.782;2023-08-06T11:50:40;2.20;;;2.07;;
9256;SDS011;4665;51.368;6.782;2023-08-06T11:53:05;2.20;;;2.00;;
9256;SDS011;4665;51.368;6.782;2023-08-06T11:55:31;2.00;;;1.90;;
9256;SDS011;4665;51.368;6.782;2023-08-06T11:57:57;1.93;;;1.83;;
9256;SDS011;4665;51.368;6.782;2023-08-06T12:00:24;2.07;;;1.97;;
9256;SDS011;4665;51.368;6.782;2023-08-06T12:02:52;1.60;;;1.60;;
9256;SDS011;4665;51.368;6.782;2023-08-06T12:05:22;2.00;;;1.90;;
9256;SDS011;4665;51.368;6.782;2023-08-06T12:07:50;1.60;;;1.60;;
9256;SDS011;4665;51.368;6.782;2023-08-06T12:10:16;1.60;;;1.60;;
9256;SDS011;4665;51.368;6.782;2023-08-06T12:12:44;1.90;;;1.80;;
9256;SDS011;4665;51.368;6.782;2023-08-06T12:15:10;1.97;;;1.80;;
9256;SDS011;4665;51.368;6.782;2023-08-06T12:17:36;2.27;;;2.17;;
9256;SDS011;4665;51.368;6.782;2023-08-06T12:20:02;1.90;;;1.90;;
9256;SDS011;4665;51.368;6.782;2023-08-06T12:22:32;2.07;;;1.97;;
9256;SDS011;4665;51.368;6.782;2023-08-06T12:25:00;2.73;;;2.30;;
9256;SDS011;4665;51.368;6.782;2023-08-06T12:27:28;2.40;;;2.27;;
9256;SDS011;4665;51.368;6.782;2023-08-06T12:29:54;2.30;;;2.20;;
9256;SDS011;4665;51.368;6.782;2023-08-06T12:32:19;2.70;;;2.60;;
9256;SDS011;4665;51.368;6.782;2023-08-06T12:34:45;2.77;;;2.60;;
9256;SDS011;4665;51.368;6.782;2023-08-06T12:37:10;2.90;;;2.70;;
9256;SDS011;4665;51.368;6.782;2023-08-06T12:39:37;3.57;;;3.27;;
9256;SDS011;4665;51.368;6.782;2023-08-06T12:42:03;3.70;;;3.40;;
9256;SDS011;4665;51.368;6.782;2023-08-06T12:44:29;4.07;;;3.63;;
9256;SDS011;4665;51.368;6.782;2023-08-06T12:46:55;3.67;;;3.47;;
9256;SDS011;4665;51.368;6.782;2023-08-06T12:49:22;3.63;;;3.33;;
9256;SDS011;4665;51.368;6.782;2023-08-06T12:51:53;3.60;;;3.40;;
9256;SDS011;4665;51.368;6.782;2023-08-06T12:54:19;4.20;;;3.80;;
9256;SDS011;4665;51.368;6.782;2023-08-06T12:56:45;4.27;;;3.87;;
9256;SDS011;4665;51.368;6.782;2023-08-06T12:59:13;4.30;;;4.00;;
9256;SDS011;4665;51.368;6.782;2023-08-06T13:01:40;4.23;;;3.67;;
9256;SDS011;4665;51.368;6.782;2023-08-06T13:04:05;4.03;;;3.73;;
9256;SDS011;4665;51.368;6.782;2023-08-06T13:06:31;3.97;;;3.50;;
9256;SDS011;4665;51.368;6.782;2023-08-06T13:09:01;3.90;;;3.33;;
9256;SDS011;4665;51.368;6.782;2023-08-06T13:11:28;4.43;;;3.83;;
9256;SDS011;4665;51.368;6.782;2023-08-06T13:13:54;3.90;;;3.50;;
9256;SDS011;4665;51.368;6.782;2023-08-06T13:16:19;3.13;;;2.87;;
9256;SDS011;4665;51.368;6.782;2023-08-06T13:18:45;3.27;;;3.00;;
9256;SDS011;4665;51.368;6.782;2023-08-06T13:21:10;4.33;;;2.90;;
9256;SDS011;4665;51.368;6.782;2023-08-06T13:23:36;2.83;;;2.63;;
9256;SDS011;4665;51.368;6.782;2023-08-06T13:26:01;3.00;;;2.80;;
9256;SDS011;4665;51.368;6.782;2023-08-06T13:28:27;3.13;;;2.77;;
9256;SDS011;4665;51.368;6.782;2023-08-06T13:30:52;3.33;;;3.13;;
9256;SDS011;4665;51.368;6.782;2023-08-06T13:33:17;3.63;;;3.30;;
9256;SDS011;4665;51.368;6.782;2023-08-06T13:35:44;3.20;;;2.90;;
9256;SDS011;4665;51.368;6.782;2023-08-06T13:38:09;4.30;;;3.37;;
9256;SDS011;4665;51.368;6.782;2023-08-06T13:40:35;3.17;;;2.97;;
9256;SDS011;4665;51.368;6.782;2023-08-06T13:43:01;3.27;;;3.07;;
9256;SDS011;4665;51.368;6.782;2023-08-06T13:45:27;3.40;;;3.10;;
9256;SDS011;4665;51.368;6.782;2023-08-06T13:47:54;3.30;;;3.03;;
9256;SDS011;4665;51.368;6.782;2023-08-06T13:50:20;4.53;;;2.80;;
9256;SDS011;4665;51.368;6.782;2023-08-06T13:52:47;3.47;;;3.17;;
9256;SDS011;4665;51.368;6.782;2023-08-06T13:55:12;3.17;;;2.83;;
9256;SDS011;4665;51.368;6.782;2023-08-06T13:57:38;5.37;;;2.70;;
9256;SDS011;4665;51.368;6.782;2023-08-06T14:00:03;3.07;;;2.77;;
9256;SDS011;4665;51.368;6.782;2023-08-06T14:02:30;4.63;;;2.50;;
9256;SDS011;4665;51.368;6.782;2023-08-06T14:04:56;2.73;;;2.53;;
9256;SDS011;4665;51.368;6.782;2023-08-06T14:07:21;2.87;;;2.67;;
9256;SDS011;4665;51.368;6.782;2023-08-06T14:09:47;3.70;;;2.57;;
9256;SDS011;4665;51.368;6.782;2023-08-06T14:12:14;3.97;;;2.60;;
9256;SDS011;4665;51.368;6.782;2023-08-06T14:14:39;3.27;;;3.03;;
9256;SDS011;4665;51.368;6.782;2023-08-06T14:17:05;3.33;;;2.80;;
9256;SDS011;4665;51.368;6.782;2023-08-06T14:19:31;3.20;;;2.87;;
9256;SDS011;4665;51.368;6.782;2023-08-06T14:21:56;3.20;;;2.97;;
9256;SDS011;4665;51.368;6.782;2023-08-06T14:24:22;3.53;;;2.77;;
9256;SDS011;4665;51.368;6.782;2023-08-06T14:26:47;3.17;;;2.87;;
9256;SDS011;4665;51.368;6.782;2023-08-06T14:29:13;3.20;;;2.90;;
9256;SDS011;4665;51.368;6.782;2023-08-06T14:31:39;4.47;;;2.73;;
9256;SDS011;4665;51.368;6.782;2023-08-06T14:34:05;3.30;;;3.00;;
9256;SDS011;4665;51.368;6.782;2023-08-06T14:36:31;4.13;;;3.70;;
9256;SDS011;4665;51.368;6.782;2023-08-06T14:38:57;3.20;;;3.00;;
9256;SDS011;4665;51.368;6.782;2023-08-06T14:41:22;3.83;;;3.10;;
9256;SDS011;4665;51.368;6.782;2023-08-06T14:43:49;3.07;;;2.87;;
9256;SDS011;4665;51.368;6.782;2023-08-06T14:46:14;3.00;;;2.80;;
9256;SDS011;4665;51.368;6.782;2023-08-06T14:48:40;3.63;;;2.57;;
9256;SDS011;4665;51.368;6.782;2023-08-06T14:51:07;3.13;;;2.87;;
9256;SDS011;4665;51.368;6.782;2023-08-06T14:53:33;2.40;;;2.20;;
9256;SDS011;4665;51.368;6.782;2023-08-06T14:55:58;2.70;;;2.53;;
9256;SDS011;4665;51.368;6.782;2023-08-06T14:58:24;4.43;;;2.67;;
9256;SDS011;4665;51.368;6.782;2023-08-06T15:00:49;2.50;;;2.30;;
9256;SDS011;4665;51.368;6.782;2023-08-06T15:03:15;3.10;;;2.40;;
9256;SDS011;4665;51.368;6.782;2023-08-06T15:05:42;2.70;;;2.43;;
9256;SDS011;4665;51.368;6.782;2023-08-06T15:08:09;8.20;;;2.57;;
9256;SDS011;4665;51.368;6.782;2023-08-06T15:10:35;3.77;;;2.10;;
9256;SDS011;4665;51.368;6.782;2023-08-06T15:13:00;2.40;;;2.20;;
9256;SDS011;4665;51.368;6.782;2023-08-06T15:17:57;3.03;;;2.30;;
9256;SDS011;4665;51.368;6.782;2023-08-06T15:20:23;2.80;;;2.20;;
9256;SDS011;4665;51.368;6.782;2023-08-06T15:22:49;2.40;;;2.20;;
9256;SDS011;4665;51.368;6.782;2023-08-06T15:25:14;2.57;;;2.13;;
9256;SDS011;4665;51.368;6.782;2023-08-06T15:27:40;2.50;;;2.27;;